UPS260 LIPZ-LIRA
Flight info
| Callsign | UPS260 |
|---|---|
| Flight time | 0h 41m |
| Altitude | 27000 |
| Route | CHI6L CHI DCT PIDEP DCT DIPVO DCT NIKMA DCT GITOD GITO3F |
| Aircraft | B763/H-SDE3FGHIM3RWXY/LB1 |
Departure
| Time | 2026-05-06 16:10 |
|---|---|
| Airport | Venice Marco Polo Airport (LIPZ) |
Arrival
| Time | 2026-05-06 16:52 |
|---|---|
| Airport | Ciampino–G. B. Pastine International Airport (LIRA) |
| Time | Latitude | Longitude | Altitude | Speed | Heading |
|---|---|---|---|---|---|
| 2026-05-06 15:50 | 45.50734 | 12.34759 | 13 ft | 0 kts | 43° |
| 2026-05-06 16:01 | 45.50727 | 12.34750 | 13 ft | 2 kts | 43° |
| 2026-05-06 16:01 | 45.50716 | 12.34736 | 13 ft | 2 kts | 42° |
| 2026-05-06 16:01 | 45.50706 | 12.34720 | 13 ft | 2 kts | 59° |
| 2026-05-06 16:02 | 45.50700 | 12.34701 | 13 ft | 2 kts | 72° |
| 2026-05-06 16:02 | 45.50697 | 12.34680 | 13 ft | 2 kts | 87° |
| 2026-05-06 16:02 | 45.50697 | 12.34659 | 13 ft | 2 kts | 101° |
| 2026-05-06 16:02 | 45.50702 | 12.34639 | 13 ft | 2 kts | 115° |
| 2026-05-06 16:03 | 45.50709 | 12.34622 | 13 ft | 1 kts | 129° |
| 2026-05-06 16:03 | 45.50713 | 12.34616 | 13 ft | 0 kts | 131° |
| 2026-05-06 16:05 | 45.50703 | 12.34630 | 13 ft | 6 kts | 131° |
| 2026-05-06 16:05 | 45.50642 | 12.34722 | 13 ft | 16 kts | 142° |
| 2026-05-06 16:06 | 45.50570 | 12.34710 | 13 ft | 11 kts | 221° |
| 2026-05-06 16:06 | 45.50491 | 12.34609 | 13 ft | 18 kts | 221° |
| 2026-05-06 16:06 | 45.50375 | 12.34459 | 13 ft | 26 kts | 221° |
| 2026-05-06 16:06 | 45.50305 | 12.34376 | 13 ft | 11 kts | 210° |
| 2026-05-06 16:07 | 45.50218 | 12.34360 | 13 ft | 14 kts | 178° |
| 2026-05-06 16:07 | 45.50114 | 12.34326 | 12 ft | 17 kts | 222° |
| 2026-05-06 16:07 | 45.50017 | 12.34201 | 13 ft | 20 kts | 221° |
| 2026-05-06 16:07 | 45.49902 | 12.34053 | 12 ft | 24 kts | 222° |
| 2026-05-06 16:08 | 45.49769 | 12.33881 | 12 ft | 27 kts | 221° |
| 2026-05-06 16:08 | 45.49634 | 12.33706 | 13 ft | 14 kts | 223° |
| 2026-05-06 16:08 | 45.49578 | 12.33632 | 12 ft | 10 kts | 223° |
| 2026-05-06 16:08 | 45.49518 | 12.33598 | 13 ft | 9 kts | 160° |
| 2026-05-06 16:09 | 45.49501 | 12.33617 | 13 ft | 9 kts | 131° |
| 2026-05-06 16:09 | 45.49485 | 12.33642 | 12 ft | 10 kts | 131° |
| 2026-05-06 16:10 | 45.49650 | 12.34078 | 13 ft | 72 kts | 42° |
| 2026-05-06 16:10 | 45.50239 | 12.34837 | 13 ft | 152 kts | 41° |
| 2026-05-06 16:10 | 45.51178 | 12.36043 | 217 ft | 205 kts | 42° |
| 2026-05-06 16:10 | 45.52287 | 12.37450 | 1014 ft | 224 kts | 42° |
| 2026-05-06 16:11 | 45.53284 | 12.39155 | 1774 ft | 228 kts | 69° |
| 2026-05-06 16:11 | 45.53492 | 12.41315 | 2614 ft | 222 kts | 99° |
| 2026-05-06 16:11 | 45.53287 | 12.43458 | 3397 ft | 224 kts | 99° |
| 2026-05-06 16:11 | 45.53077 | 12.45731 | 3924 ft | 240 kts | 100° |
| 2026-05-06 16:12 | 45.52828 | 12.47288 | 4286 ft | 248 kts | 116° |
| 2026-05-06 16:13 | 45.45838 | 12.50337 | 7639 ft | 268 kts | 183° |
| 2026-05-06 16:13 | 45.43977 | 12.50295 | 8516 ft | 272 kts | 184° |
| 2026-05-06 16:13 | 45.42087 | 12.50245 | 9422 ft | 275 kts | 184° |
| 2026-05-06 16:13 | 45.40188 | 12.50194 | 10336 ft | 277 kts | 184° |
| 2026-05-06 16:14 | 45.38212 | 12.50136 | 10876 ft | 293 kts | 184° |
| 2026-05-06 16:14 | 45.36143 | 12.50075 | 11417 ft | 309 kts | 183° |
| 2026-05-06 16:14 | 45.33928 | 12.49859 | 11950 ft | 324 kts | 193° |
| 2026-05-06 16:14 | 45.31807 | 12.48750 | 12476 ft | 338 kts | 210° |
| 2026-05-06 16:15 | 45.29750 | 12.46983 | 12885 ft | 357 kts | 211° |
| 2026-05-06 16:15 | 45.27568 | 12.45188 | 13795 ft | 362 kts | 211° |
| 2026-05-06 16:15 | 45.25424 | 12.43387 | 14849 ft | 363 kts | 210° |
| 2026-05-06 16:15 | 45.23233 | 12.41566 | 15695 ft | 369 kts | 211° |
| 2026-05-06 16:16 | 45.21013 | 12.39715 | 16540 ft | 374 kts | 211° |
| 2026-05-06 16:16 | 45.18780 | 12.37855 | 17379 ft | 378 kts | 211° |
| 2026-05-06 16:16 | 45.16519 | 12.35975 | 18210 ft | 381 kts | 211° |
| 2026-05-06 16:16 | 45.14210 | 12.34053 | 19015 ft | 385 kts | 211° |
| 2026-05-06 16:17 | 45.11909 | 12.32142 | 19863 ft | 387 kts | 211° |
| 2026-05-06 16:17 | 45.09551 | 12.30230 | 20553 ft | 393 kts | 208° |
| 2026-05-06 16:17 | 45.07007 | 12.28809 | 21318 ft | 399 kts | 198° |
| 2026-05-06 16:17 | 45.04278 | 12.28095 | 22055 ft | 406 kts | 188° |
| 2026-05-06 16:18 | 45.01422 | 12.27911 | 22682 ft | 413 kts | 186° |
| 2026-05-06 16:18 | 44.98535 | 12.27729 | 23453 ft | 414 kts | 186° |
| 2026-05-06 16:18 | 44.95652 | 12.27571 | 24059 ft | 419 kts | 186° |
| 2026-05-06 16:18 | 44.92749 | 12.27412 | 24725 ft | 423 kts | 186° |
| 2026-05-06 16:19 | 44.89786 | 12.27253 | 25358 ft | 427 kts | 186° |
| 2026-05-06 16:19 | 44.86814 | 12.27097 | 25946 ft | 431 kts | 186° |
| 2026-05-06 16:19 | 44.83794 | 12.26938 | 26656 ft | 433 kts | 187° |
| 2026-05-06 16:19 | 44.80769 | 12.26781 | 26869 ft | 439 kts | 187° |
| 2026-05-06 16:20 | 44.77693 | 12.26618 | 26867 ft | 450 kts | 186° |
| 2026-05-06 16:20 | 44.74512 | 12.26452 | 26866 ft | 459 kts | 186° |
| 2026-05-06 16:20 | 44.71344 | 12.26291 | 26861 ft | 460 kts | 186° |
| 2026-05-06 16:20 | 44.68131 | 12.26127 | 26862 ft | 456 kts | 186° |
| 2026-05-06 16:21 | 44.64988 | 12.25967 | 26861 ft | 455 kts | 186° |
| 2026-05-06 16:21 | 44.61843 | 12.25805 | 26858 ft | 455 kts | 186° |
| 2026-05-06 16:21 | 44.58638 | 12.25642 | 26862 ft | 456 kts | 186° |
| 2026-05-06 16:21 | 44.55494 | 12.25480 | 26862 ft | 456 kts | 186° |
| 2026-05-06 16:22 | 44.52304 | 12.25317 | 26864 ft | 456 kts | 186° |
| 2026-05-06 16:22 | 44.49145 | 12.25155 | 26865 ft | 457 kts | 186° |
| 2026-05-06 16:22 | 44.45960 | 12.24992 | 26869 ft | 456 kts | 186° |
| 2026-05-06 16:22 | 44.42822 | 12.24833 | 26870 ft | 456 kts | 186° |
| 2026-05-06 16:23 | 44.39655 | 12.24671 | 26874 ft | 457 kts | 186° |
| 2026-05-06 16:23 | 44.36441 | 12.24508 | 26877 ft | 457 kts | 186° |
| 2026-05-06 16:23 | 44.33298 | 12.24347 | 26885 ft | 458 kts | 186° |
| 2026-05-06 16:23 | 44.30080 | 12.24184 | 26882 ft | 458 kts | 186° |
| 2026-05-06 16:24 | 44.26906 | 12.24023 | 26884 ft | 459 kts | 186° |
| 2026-05-06 16:24 | 44.23695 | 12.23860 | 26886 ft | 458 kts | 186° |
| 2026-05-06 16:24 | 44.20551 | 12.23702 | 26885 ft | 457 kts | 186° |
| 2026-05-06 16:24 | 44.17349 | 12.23540 | 26889 ft | 457 kts | 186° |
| 2026-05-06 16:25 | 44.14174 | 12.23379 | 26889 ft | 457 kts | 186° |
| 2026-05-06 16:25 | 44.11002 | 12.23219 | 26895 ft | 459 kts | 186° |
| 2026-05-06 16:25 | 44.07806 | 12.23058 | 26896 ft | 460 kts | 186° |
| 2026-05-06 16:25 | 44.04639 | 12.22899 | 26898 ft | 459 kts | 186° |
| 2026-05-06 16:26 | 44.01441 | 12.22737 | 26895 ft | 459 kts | 186° |
| 2026-05-06 16:26 | 43.98284 | 12.22580 | 26897 ft | 457 kts | 186° |
| 2026-05-06 16:26 | 43.95088 | 12.22420 | 26907 ft | 458 kts | 186° |
| 2026-05-06 16:26 | 43.91903 | 12.22256 | 26909 ft | 459 kts | 186° |
| 2026-05-06 16:27 | 43.88714 | 12.22101 | 26922 ft | 461 kts | 186° |
| 2026-05-06 16:27 | 43.85496 | 12.21937 | 26920 ft | 460 kts | 186° |
| 2026-05-06 16:27 | 43.82323 | 12.21781 | 26920 ft | 457 kts | 186° |
| 2026-05-06 16:27 | 43.79132 | 12.21623 | 26928 ft | 459 kts | 186° |
| 2026-05-06 16:28 | 43.75941 | 12.21464 | 26932 ft | 460 kts | 186° |
| 2026-05-06 16:28 | 43.72743 | 12.21307 | 26934 ft | 459 kts | 186° |
| 2026-05-06 16:28 | 43.69566 | 12.21149 | 26937 ft | 458 kts | 186° |
| 2026-05-06 16:28 | 43.66347 | 12.20991 | 26933 ft | 458 kts | 186° |
| 2026-05-06 16:29 | 43.63179 | 12.20835 | 26934 ft | 457 kts | 186° |
| 2026-05-06 16:29 | 43.60028 | 12.20679 | 26929 ft | 450 kts | 186° |
| 2026-05-06 16:29 | 43.56960 | 12.20528 | 26925 ft | 439 kts | 186° |
| 2026-05-06 16:29 | 43.53909 | 12.20377 | 26928 ft | 433 kts | 187° |
| 2026-05-06 16:30 | 43.50894 | 12.20224 | 26931 ft | 435 kts | 187° |
| 2026-05-06 16:30 | 43.48872 | 12.20121 | 26838 ft | 441 kts | 187° |
| 2026-05-06 16:30 | 43.44814 | 12.19919 | 26640 ft | 435 kts | 186° |
| 2026-05-06 16:30 | 43.41826 | 12.19775 | 26576 ft | 418 kts | 186° |
| 2026-05-06 16:31 | 43.38956 | 12.19633 | 26035 ft | 414 kts | 187° |
| 2026-05-06 16:31 | 43.36074 | 12.19487 | 25385 ft | 411 kts | 187° |
| 2026-05-06 16:31 | 43.33224 | 12.19346 | 24761 ft | 408 kts | 186° |
| 2026-05-06 16:31 | 43.30445 | 12.19208 | 24275 ft | 402 kts | 186° |
| 2026-05-06 16:32 | 43.27630 | 12.19068 | 23608 ft | 399 kts | 186° |
| 2026-05-06 16:32 | 43.24888 | 12.18932 | 23132 ft | 393 kts | 186° |
| 2026-05-06 16:32 | 43.22165 | 12.18796 | 22413 ft | 394 kts | 186° |
| 2026-05-06 16:32 | 43.19419 | 12.18659 | 21812 ft | 390 kts | 186° |
| 2026-05-06 16:33 | 43.16724 | 12.18527 | 21209 ft | 388 kts | 186° |
| 2026-05-06 16:33 | 43.14052 | 12.18394 | 20559 ft | 387 kts | 186° |
| 2026-05-06 16:33 | 43.11372 | 12.18262 | 20009 ft | 383 kts | 185° |
| 2026-05-06 16:34 | 43.06055 | 12.18534 | 18861 ft | 393 kts | 171° |
| 2026-05-06 16:34 | 43.03462 | 12.19615 | 18407 ft | 389 kts | 163° |
| 2026-05-06 16:34 | 43.00906 | 12.20868 | 17984 ft | 385 kts | 164° |
| 2026-05-06 16:34 | 42.98412 | 12.22082 | 17567 ft | 384 kts | 163° |
| 2026-05-06 16:35 | 42.95922 | 12.23297 | 17162 ft | 381 kts | 163° |
| 2026-05-06 16:35 | 42.93421 | 12.24521 | 16768 ft | 380 kts | 163° |
| 2026-05-06 16:35 | 42.90926 | 12.25741 | 16360 ft | 378 kts | 163° |
| 2026-05-06 16:35 | 42.88470 | 12.26942 | 15993 ft | 377 kts | 163° |
| 2026-05-06 16:36 | 42.85985 | 12.28158 | 15576 ft | 374 kts | 163° |
| 2026-05-06 16:36 | 42.83542 | 12.29352 | 15190 ft | 374 kts | 163° |
| 2026-05-06 16:36 | 42.81120 | 12.30536 | 14797 ft | 372 kts | 162° |
| 2026-05-06 16:36 | 42.78762 | 12.32088 | 14420 ft | 374 kts | 152° |
| 2026-05-06 16:37 | 42.76535 | 12.33900 | 14071 ft | 372 kts | 153° |
| 2026-05-06 16:37 | 42.74314 | 12.35651 | 13710 ft | 372 kts | 152° |
| 2026-05-06 16:37 | 42.72087 | 12.37423 | 13345 ft | 369 kts | 152° |
| 2026-05-06 16:37 | 42.69879 | 12.39181 | 12994 ft | 367 kts | 152° |
| 2026-05-06 16:38 | 42.67681 | 12.40930 | 12637 ft | 364 kts | 152° |
| 2026-05-06 16:38 | 42.65512 | 12.42658 | 12263 ft | 362 kts | 152° |
| 2026-05-06 16:38 | 42.63362 | 12.44370 | 11971 ft | 350 kts | 152° |
| 2026-05-06 16:38 | 42.61327 | 12.45991 | 11614 ft | 333 kts | 152° |
| 2026-05-06 16:39 | 42.59376 | 12.47543 | 11315 ft | 316 kts | 152° |
| 2026-05-06 16:39 | 42.57520 | 12.49018 | 11057 ft | 300 kts | 153° |
| 2026-05-06 16:39 | 42.55768 | 12.50409 | 10920 ft | 285 kts | 153° |
| 2026-05-06 16:39 | 42.54038 | 12.51559 | 10888 ft | 268 kts | 169° |
| 2026-05-06 16:40 | 42.52256 | 12.51719 | 10665 ft | 259 kts | 186° |
| 2026-05-06 16:40 | 42.50449 | 12.51604 | 10407 ft | 257 kts | 184° |
| 2026-05-06 16:40 | 42.48677 | 12.51530 | 10056 ft | 256 kts | 184° |
| 2026-05-06 16:40 | 42.47492 | 12.51478 | 9716 ft | 257 kts | 184° |
| 2026-05-06 16:41 | 42.45113 | 12.51377 | 9143 ft | 253 kts | 184° |
| 2026-05-06 16:41 | 42.43380 | 12.51304 | 8699 ft | 252 kts | 183° |
| 2026-05-06 16:41 | 42.41643 | 12.51232 | 8279 ft | 249 kts | 183° |
| 2026-05-06 16:41 | 42.39896 | 12.51159 | 8011 ft | 247 kts | 183° |
| 2026-05-06 16:42 | 42.38207 | 12.51090 | 7887 ft | 248 kts | 182° |
| 2026-05-06 16:42 | 42.36456 | 12.51017 | 7602 ft | 248 kts | 183° |
| 2026-05-06 16:42 | 42.34735 | 12.50947 | 7311 ft | 248 kts | 182° |
| 2026-05-06 16:42 | 42.33012 | 12.50876 | 7032 ft | 247 kts | 182° |
| 2026-05-06 16:43 | 42.31326 | 12.50807 | 6975 ft | 240 kts | 182° |
| 2026-05-06 16:43 | 42.29651 | 12.50738 | 6963 ft | 241 kts | 182° |
| 2026-05-06 16:43 | 42.27951 | 12.50667 | 6674 ft | 250 kts | 182° |
| 2026-05-06 16:43 | 42.26206 | 12.50595 | 6358 ft | 250 kts | 182° |
| 2026-05-06 16:44 | 42.24453 | 12.50523 | 6050 ft | 250 kts | 182° |
| 2026-05-06 16:44 | 42.22741 | 12.50453 | 6003 ft | 241 kts | 181° |
| 2026-05-06 16:44 | 42.21079 | 12.50385 | 6013 ft | 239 kts | 181° |
| 2026-05-06 16:44 | 42.19411 | 12.50317 | 6012 ft | 240 kts | 181° |
| 2026-05-06 16:45 | 42.17753 | 12.50249 | 6005 ft | 242 kts | 181° |
| 2026-05-06 16:45 | 42.16049 | 12.50180 | 6022 ft | 245 kts | 182° |
| 2026-05-06 16:45 | 42.14328 | 12.50109 | 5722 ft | 249 kts | 181° |
| 2026-05-06 16:45 | 42.12592 | 12.50038 | 5396 ft | 249 kts | 181° |
| 2026-05-06 16:46 | 42.10869 | 12.49968 | 5074 ft | 249 kts | 182° |
| 2026-05-06 16:46 | 42.09118 | 12.49897 | 4754 ft | 249 kts | 181° |
| 2026-05-06 16:46 | 42.07390 | 12.49826 | 4433 ft | 249 kts | 181° |
| 2026-05-06 16:46 | 42.05654 | 12.49755 | 4112 ft | 250 kts | 181° |
| 2026-05-06 16:47 | 42.03915 | 12.49684 | 3790 ft | 250 kts | 181° |
| 2026-05-06 16:47 | 42.02182 | 12.49614 | 3470 ft | 250 kts | 181° |
| 2026-05-06 16:47 | 42.00424 | 12.49542 | 3151 ft | 251 kts | 182° |
| 2026-05-06 16:47 | 41.98698 | 12.49472 | 2984 ft | 244 kts | 181° |
| 2026-05-06 16:48 | 41.97039 | 12.49405 | 2983 ft | 234 kts | 182° |
| 2026-05-06 16:48 | 41.95439 | 12.49342 | 2992 ft | 231 kts | 179° |
| 2026-05-06 16:48 | 41.93882 | 12.49898 | 3026 ft | 234 kts | 153° |
| 2026-05-06 16:48 | 41.92433 | 12.50931 | 2839 ft | 237 kts | 154° |
| 2026-05-06 16:49 | 41.90998 | 12.51899 | 2599 ft | 219 kts | 154° |
| 2026-05-06 16:49 | 41.89748 | 12.52758 | 2318 ft | 196 kts | 154° |
| 2026-05-06 16:49 | 41.88593 | 12.53545 | 2032 ft | 181 kts | 154° |
| 2026-05-06 16:49 | 41.87513 | 12.54285 | 1828 ft | 171 kts | 154° |
| 2026-05-06 16:50 | 41.86445 | 12.55018 | 1599 ft | 171 kts | 154° |
| 2026-05-06 16:50 | 41.85389 | 12.55744 | 1374 ft | 168 kts | 154° |
| 2026-05-06 16:50 | 41.84398 | 12.56426 | 1124 ft | 154 kts | 154° |
| 2026-05-06 16:50 | 41.83463 | 12.57068 | 930 ft | 149 kts | 154° |
| 2026-05-06 16:51 | 41.82537 | 12.57703 | 763 ft | 150 kts | 154° |
| 2026-05-06 16:51 | 41.81606 | 12.58341 | 570 ft | 151 kts | 154° |
| 2026-05-06 16:51 | 41.80667 | 12.58984 | 404 ft | 149 kts | 154° |
| 2026-05-06 16:51 | 41.79815 | 12.59565 | 405 ft | 115 kts | 152° |
| 2026-05-06 16:52 | 41.79354 | 12.59885 | 425 ft | 58 kts | 152° |
| 2026-05-06 16:52 | 41.79115 | 12.60048 | 433 ft | 20 kts | 155° |
| 2026-05-06 16:52 | 41.79048 | 12.60024 | 433 ft | 8 kts | 243° |
| 2026-05-06 16:52 | 41.79025 | 12.59945 | 432 ft | 8 kts | 260° |
| 2026-05-06 16:53 | 41.79025 | 12.59943 | 432 ft | 0 kts | 260° |
| 2026-05-06 16:53 | 41.79024 | 12.59934 | 432 ft | 3 kts | 260° |
| 2026-05-06 16:53 | 41.79010 | 12.59870 | 431 ft | 7 kts | 230° |
| 2026-05-06 16:54 | 41.78978 | 12.59870 | 432 ft | 4 kts | 151° |
| 2026-05-06 16:54 | 41.78961 | 12.59882 | 433 ft | 1 kts | 152° |
| 2026-05-06 16:54 | 41.78960 | 12.59883 | 433 ft | 0 kts | 152° |